Tillabery, Niger
Current Conditions -  °F | °C
As of 6:00 AM on Saturday 29 Nov 2014 (Local Time) from DRRN Reporting Station
Clear Clear  
Wind Chill: 73°   Ceiling: Unl
Heat Index: 73°   Visibility: 5mi
Dew Point: 34°   Wind: 5mph
Humidity: 23%   Direction: 110°ESE
Pressure: 29.85"   Gusts: NA
Location:  14.21°N, 1.45°E
Report Text: DRRN 290500Z 11004KT 8000 NSC 23/01 Q1011 NOSIG
Loading
Personal Weather Stations






























Interactive Weather Map New forecast layout! Learn more

10-Day Weather Forecast

Advertisements
Track Severe Weather on mobile